createdAt,value
2024-05-09T00:00:22.432Z,24.04
2024-05-09T00:03:38.231Z,23.37
2024-05-09T00:06:46.549Z,23.08
2024-05-09T00:09:57.492Z,23.07
2024-05-09T00:13:05.975Z,23.23
2024-05-09T00:16:14.306Z,23.27
2024-05-09T00:19:23.126Z,23.81
2024-05-09T00:22:31.333Z,23.46
2024-05-09T00:25:42.429Z,23.26
2024-05-09T00:28:51.176Z,23.18
2024-05-09T00:31:59.703Z,23.32
2024-05-09T00:35:08.708Z,23.61
2024-05-09T00:38:16.994Z,23.29
2024-05-09T00:41:27.823Z,22.63
2024-05-09T00:44:35.962Z,22.86
2024-05-09T00:47:46.525Z,23.16
2024-05-09T00:50:56.579Z,23.36
2024-05-09T00:54:05.701Z,23.41
2024-05-09T00:57:16.973Z,23.26
2024-05-09T01:00:31.801Z,23.45
2024-05-09T01:03:48.764Z,23.38
2024-05-09T01:06:59.040Z,23.43
2024-05-09T01:10:13.956Z,23.39
2024-05-09T01:13:28.567Z,23.36
2024-05-09T01:16:37.239Z,21.70
2024-05-09T01:19:46.044Z,21.62
2024-05-09T01:22:54.778Z,22.47
2024-05-09T01:26:06.185Z,22.79
2024-05-09T01:29:14.586Z,21.93
2024-05-09T01:32:23.231Z,22.68
2024-05-09T01:35:31.768Z,22.98
2024-05-09T01:38:40.296Z,23.48
2024-05-09T01:41:51.073Z,23.45
2024-05-09T01:44:59.053Z,23.59
2024-05-09T01:48:08.244Z,23.35
2024-05-09T01:51:16.806Z,23.10
2024-05-09T01:54:24.959Z,23.47
2024-05-09T01:57:36.248Z,23.47
2024-05-09T02:00:44.458Z,23.18
2024-05-09T02:03:53.320Z,23.47
2024-05-09T02:07:01.710Z,23.54
2024-05-09T02:10:16.461Z,22.68
2024-05-09T02:13:31.684Z,22.56
2024-05-09T02:16:39.894Z,22.29
2024-05-09T02:19:48.363Z,21.20
2024-05-09T02:22:57.669Z,22.54
2024-05-09T02:26:05.866Z,21.86
2024-05-09T02:29:16.939Z,21.86
2024-05-09T02:32:25.544Z,21.50
2024-05-09T02:35:33.805Z,22.20
2024-05-09T02:38:40.014Z,23.04
2024-05-09T02:41:48.310Z,23.03
2024-05-09T02:44:56.465Z,22.71
2024-05-09T02:48:05.034Z,22.91
2024-05-09T02:51:11.420Z,22.67
2024-05-09T02:54:20.330Z,23.19
2024-05-09T02:57:25.726Z,22.80
2024-05-09T03:00:40.240Z,22.99
2024-05-09T03:03:51.104Z,24.00
2024-05-09T03:06:56.720Z,22.85
2024-05-09T03:10:11.876Z,22.78
2024-05-09T03:13:23.300Z,22.56
2024-05-09T03:19:40.588Z,22.17
2024-05-09T03:22:46.079Z,21.94
2024-05-09T03:25:54.421Z,22.71
2024-05-09T03:29:02.470Z,22.50
2024-05-09T03:32:11.133Z,22.52
2024-05-09T03:35:20.842Z,22.98
2024-05-09T03:38:28.999Z,21.93
2024-05-09T03:41:37.264Z,22.84
2024-05-09T03:44:45.813Z,22.67
2024-05-09T03:47:54.387Z,22.47
2024-05-09T03:51:02.618Z,22.69
2024-05-09T03:54:08.375Z,22.59
2024-05-09T03:57:16.807Z,23.40
2024-05-09T04:00:30.975Z,23.63
2024-05-09T04:03:48.524Z,23.38
2024-05-09T04:06:54.411Z,23.34
2024-05-09T04:10:04.022Z,24.12
2024-05-09T04:13:11.134Z,23.57
2024-05-09T04:16:19.254Z,23.91
2024-05-09T04:19:27.526Z,24.49
2024-05-09T04:22:35.950Z,23.15
2024-05-09T04:25:43.323Z,24.10
2024-05-09T04:28:51.748Z,24.30
2024-05-09T04:31:57.662Z,24.56
2024-05-09T04:35:08.920Z,25.23
2024-05-09T04:38:17.300Z,24.19
2024-05-09T04:41:24.051Z,24.39
2024-05-09T04:44:32.574Z,24.47
2024-05-09T04:47:41.445Z,24.39
2024-05-09T04:50:49.934Z,23.39
2024-05-09T04:53:58.193Z,23.57
2024-05-09T04:57:06.719Z,24.39
2024-05-09T05:00:14.983Z,24.16
2024-05-09T05:03:29.853Z,24.56
2024-05-09T05:06:38.053Z,24.71
2024-05-09T05:09:46.675Z,24.84
2024-05-09T05:13:11.057Z,25.64
2024-05-09T05:16:20.047Z,25.25
2024-05-09T05:19:25.649Z,25.98
2024-05-09T05:22:36.866Z,25.25
2024-05-09T05:25:42.824Z,25.74
2024-05-09T05:28:51.204Z,26.91
2024-05-09T05:31:57.087Z,26.48
2024-05-09T05:35:05.463Z,27.30
2024-05-09T05:38:13.721Z,27.84
2024-05-09T05:41:21.777Z,28.17
2024-05-09T05:44:29.965Z,27.00
2024-05-09T05:47:36.988Z,26.91
2024-05-09T05:50:45.915Z,27.62
2024-05-09T05:53:57.441Z,27.90
2024-05-09T05:57:02.932Z,27.11
2024-05-09T06:00:18.086Z,28.03
2024-05-09T06:03:34.213Z,26.94
2024-05-09T06:06:39.921Z,26.41
2024-05-09T06:09:50.702Z,27.20
2024-05-09T06:12:59.185Z,29.10
2024-05-09T06:16:08.017Z,28.37
2024-05-09T06:19:13.617Z,29.43
2024-05-09T06:22:22.145Z,26.71
2024-05-09T06:25:33.410Z,26.57
2024-05-09T06:28:38.958Z,29.82
2024-05-09T06:31:47.854Z,26.81
2024-05-09T06:34:53.833Z,26.55
2024-05-09T06:38:02.490Z,26.70
2024-05-09T06:41:11.278Z,27.02
2024-05-09T06:44:19.340Z,27.92
2024-05-09T06:47:25.277Z,27.40
2024-05-09T06:50:37.634Z,28.12
2024-05-09T06:53:47.209Z,27.70
2024-05-09T06:56:58.377Z,28.48
2024-05-09T07:00:05.038Z,28.25
2024-05-09T07:03:19.605Z,29.79
2024-05-09T07:06:28.319Z,28.19
2024-05-09T07:09:34.239Z,28.90
2024-05-09T07:12:45.225Z,27.59
2024-05-09T07:15:50.716Z,29.68
2024-05-09T07:18:58.899Z,29.47
2024-05-09T07:22:04.788Z,27.94
2024-05-09T07:25:13.324Z,28.60
2024-05-09T07:28:24.923Z,29.41
2024-05-09T07:31:32.968Z,29.68
2024-05-09T07:34:38.521Z,28.40
2024-05-09T07:37:47.208Z,28.32
2024-05-09T07:40:55.746Z,29.21
2024-05-09T07:44:04.304Z,28.59
2024-05-09T07:48:27.711Z,29.63
2024-05-09T07:53:55.820Z,31.28
2024-05-09T07:57:06.575Z,31.57
2024-05-09T08:00:20.387Z,30.18
2024-05-09T08:03:35.668Z,29.28
2024-05-09T08:06:45.701Z,28.38
2024-05-09T08:09:54.226Z,28.51
2024-05-09T08:13:00.145Z,29.87
2024-05-09T08:16:12.379Z,29.92
2024-05-09T08:19:18.151Z,31.32
2024-05-09T08:22:26.722Z,31.26
2024-05-09T08:25:32.601Z,30.13
2024-05-09T08:28:40.780Z,29.48
2024-05-09T08:31:55.952Z,33.06
2024-05-09T08:35:04.427Z,29.45
2024-05-09T08:38:10.286Z,30.49
2024-05-09T08:41:18.819Z,32.04
2024-05-09T08:44:24.507Z,30.91
2024-05-09T08:47:35.673Z,30.78
2024-05-09T08:50:42.218Z,32.79
2024-05-09T08:53:50.297Z,33.86
2024-05-09T08:56:55.839Z,30.40
2024-05-09T09:00:12.540Z,30.47
2024-05-09T09:03:25.966Z,32.71
2024-05-09T09:06:36.676Z,31.00
2024-05-09T09:09:47.636Z,31.76
2024-05-09T09:12:58.039Z,31.86
2024-05-09T09:16:06.894Z,29.45
2024-05-09T09:19:18.148Z,29.90
2024-05-09T09:22:23.807Z,29.97
2024-05-09T09:25:32.191Z,30.09
2024-05-09T09:28:38.059Z,30.61
2024-05-09T09:31:46.276Z,29.03
2024-05-09T09:34:54.468Z,28.54
2024-05-09T09:38:06.166Z,28.85
2024-05-09T09:41:11.528Z,28.92
2024-05-09T09:44:22.455Z,28.40
2024-05-09T09:47:29.012Z,29.10
2024-05-09T09:50:40.298Z,28.26
2024-05-09T09:53:48.171Z,28.67
2024-05-09T09:56:58.414Z,27.83
2024-05-09T10:00:09.522Z,28.71
2024-05-09T10:03:20.425Z,28.34
2024-05-09T10:06:32.588Z,26.84
2024-05-09T10:09:41.054Z,26.13
2024-05-09T10:12:53.821Z,26.88
2024-05-09T10:16:02.057Z,26.15
2024-05-09T10:19:07.448Z,26.65
2024-05-09T10:22:18.377Z,26.48
2024-05-09T10:25:25.237Z,26.53
2024-05-09T10:28:34.242Z,25.26
2024-05-09T10:31:41.665Z,26.05
2024-05-09T10:35:03.094Z,26.33
2024-05-09T10:38:13.084Z,27.05
2024-05-09T10:41:22.051Z,26.07
2024-05-09T10:44:30.721Z,25.93
2024-05-09T10:47:37.396Z,26.07
2024-05-09T10:50:47.171Z,25.18
2024-05-09T10:53:59.174Z,24.64
2024-05-09T10:57:05.279Z,25.76
2024-05-09T11:00:23.206Z,24.77
2024-05-09T11:03:39.396Z,25.96
2024-05-09T11:06:47.450Z,26.76
2024-05-09T11:09:58.390Z,27.12
2024-05-09T11:13:04.747Z,26.94
2024-05-09T11:16:21.425Z,25.66
2024-05-09T11:19:31.676Z,26.24
2024-05-09T11:22:40.181Z,24.57
2024-05-09T11:25:52.685Z,25.26
2024-05-09T11:29:00.803Z,25.26
2024-05-09T11:32:07.870Z,25.86
2024-05-09T11:35:15.867Z,24.68
2024-05-09T11:38:21.515Z,24.91
2024-05-09T11:41:36.025Z,25.02
2024-05-09T11:44:44.314Z,23.94
2024-05-09T11:47:53.441Z,24.58
2024-05-09T11:50:58.912Z,24.78
2024-05-09T11:54:07.367Z,25.20
2024-05-09T11:57:15.939Z,25.37
2024-05-09T12:00:33.039Z,24.51
2024-05-09T12:03:42.367Z,25.38
2024-05-09T12:06:50.976Z,24.68
2024-05-09T12:09:56.429Z,25.51
2024-05-09T12:13:07.657Z,24.66
2024-05-09T12:16:13.459Z,24.99
2024-05-09T12:19:21.478Z,24.47
2024-05-09T12:22:27.016Z,24.37
2024-05-09T12:25:34.738Z,25.30
2024-05-09T12:28:43.372Z,23.92
2024-05-09T12:31:51.572Z,24.65
2024-05-09T12:34:57.392Z,25.22
2024-05-09T12:38:05.499Z,24.91
2024-05-09T12:41:11.514Z,24.65
2024-05-09T12:44:22.534Z,24.35
2024-05-09T12:47:28.124Z,23.61
2024-05-09T12:50:36.724Z,24.71
2024-05-09T12:53:45.174Z,24.25
2024-05-09T12:56:51.395Z,24.58
2024-05-09T13:00:04.073Z,24.87
2024-05-09T13:03:10.101Z,25.14
2024-05-09T13:06:18.605Z,25.21
2024-05-09T13:09:27.073Z,25.37
2024-05-09T13:12:32.729Z,24.44
2024-05-09T13:15:44.212Z,25.86
2024-05-09T13:18:52.687Z,25.26
2024-05-09T13:21:58.147Z,25.99
2024-05-09T13:25:06.597Z,26.02
2024-05-09T13:28:15.126Z,25.16
2024-05-09T13:31:23.546Z,26.06
2024-05-09T13:34:31.642Z,25.47
2024-05-09T13:37:37.428Z,25.38
2024-05-09T13:40:46.197Z,25.72
2024-05-09T13:43:51.692Z,26.03
2024-05-09T13:47:02.833Z,26.55
2024-05-09T13:50:14.088Z,26.72
2024-05-09T13:53:25.385Z,26.12
2024-05-09T13:56:30.884Z,26.55
2024-05-09T13:59:39.314Z,25.96
2024-05-09T14:02:47.794Z,25.32
2024-05-09T14:05:56.063Z,24.62
2024-05-09T14:09:05.017Z,25.49
2024-05-09T14:12:13.258Z,24.92
2024-05-09T14:15:21.660Z,26.22
2024-05-09T14:18:30.528Z,27.26
2024-05-09T14:21:39.032Z,27.30
2024-05-09T14:24:44.566Z,26.94
2024-05-09T14:27:52.705Z,27.63
2024-05-09T14:30:59.258Z,28.51
2024-05-09T14:34:10.766Z,27.92
2024-05-09T14:37:16.408Z,26.80
2024-05-09T14:43:36.080Z,27.27
2024-05-09T14:46:41.743Z,27.40
2024-05-09T14:49:52.709Z,27.49
2024-05-09T14:52:58.539Z,27.15
2024-05-09T14:56:06.873Z,26.65
2024-05-09T14:59:15.019Z,27.92
2024-05-09T15:02:20.638Z,28.82
2024-05-09T15:05:31.648Z,30.47
2024-05-09T15:08:42.072Z,31.29
2024-05-09T15:11:47.873Z,28.78
2024-05-09T15:14:55.876Z,27.68
2024-05-09T15:18:04.924Z,27.50
2024-05-09T15:21:16.179Z,27.35
2024-05-09T15:24:21.863Z,26.54
2024-05-09T15:27:30.338Z,27.24
2024-05-09T15:30:40.142Z,26.53
2024-05-09T15:33:49.463Z,26.34
2024-05-09T15:36:59.281Z,26.54
2024-05-09T15:40:15.348Z,26.61
2024-05-09T15:43:28.333Z,27.28
2024-05-09T15:46:36.420Z,26.47
2024-05-09T15:49:42.115Z,24.61
2024-05-09T15:52:52.859Z,24.69
2024-05-09T15:55:58.452Z,25.69
2024-05-09T15:59:07.194Z,25.96
2024-05-09T16:02:12.725Z,26.19
2024-05-09T16:05:21.118Z,25.36
2024-05-09T16:08:32.113Z,26.19
2024-05-09T16:11:40.586Z,25.53
2024-05-09T16:14:47.682Z,25.17
2024-05-09T16:17:56.590Z,25.50
2024-05-09T16:21:02.875Z,26.26
2024-05-09T16:24:13.917Z,25.70
2024-05-09T16:27:19.483Z,26.04
2024-05-09T16:30:34.150Z,25.27
2024-05-09T16:33:41.487Z,25.50
2024-05-09T16:36:51.390Z,25.01
2024-05-09T16:39:59.204Z,25.72
2024-05-09T16:43:08.540Z,26.58
2024-05-09T16:46:17.732Z,24.24
2024-05-09T16:49:24.155Z,23.97
2024-05-09T16:52:32.643Z,23.80
2024-05-09T16:55:40.775Z,24.36
2024-05-09T16:58:48.932Z,24.34
2024-05-09T17:01:55.042Z,24.08
2024-05-09T17:05:03.879Z,24.64
2024-05-09T17:08:09.794Z,24.88
2024-05-09T17:11:20.999Z,24.77
2024-05-09T17:14:29.137Z,24.97
2024-05-09T17:17:37.833Z,24.61
2024-05-09T17:20:46.068Z,25.95
2024-05-09T17:23:54.597Z,25.17
2024-05-09T17:27:06.155Z,25.18
2024-05-09T17:30:17.755Z,25.69
2024-05-09T17:33:32.559Z,23.60
2024-05-09T17:36:41.064Z,24.07
2024-05-09T17:39:49.376Z,23.77
2024-05-09T17:42:57.948Z,24.46
2024-05-09T17:46:07.523Z,24.23
2024-05-09T17:49:16.005Z,24.11
2024-05-09T17:52:21.710Z,23.96
2024-05-09T17:55:30.365Z,24.59
2024-05-09T17:58:38.638Z,24.50
2024-05-09T18:01:47.209Z,24.53
2024-05-09T18:04:52.647Z,24.40
2024-05-09T18:08:01.213Z,25.17
2024-05-09T18:11:09.825Z,24.80
2024-05-09T18:14:20.863Z,24.63
2024-05-09T18:17:27.000Z,24.14
2024-05-09T18:20:42.618Z,24.08
2024-05-09T18:23:56.828Z,24.92
2024-05-09T18:27:04.208Z,24.45
2024-05-09T18:30:24.154Z,24.63
2024-05-09T18:33:40.365Z,24.32
2024-05-09T18:36:46.772Z,24.47
2024-05-09T18:39:55.179Z,23.84
2024-05-09T18:43:03.607Z,23.90
2024-05-09T18:46:12.369Z,24.03
2024-05-09T18:49:20.612Z,24.08
2024-05-09T18:52:26.684Z,23.60
2024-05-09T18:55:35.318Z,24.23
2024-05-09T18:58:40.804Z,23.57
2024-05-09T19:01:52.719Z,23.73
2024-05-09T19:04:58.684Z,24.16
2024-05-09T19:08:07.521Z,23.21
2024-05-09T19:11:16.021Z,23.10
2024-05-09T19:14:21.592Z,23.59
2024-05-09T19:17:33.395Z,24.25
2024-05-09T19:20:39.491Z,23.45
2024-05-09T19:23:52.247Z,23.28
2024-05-09T19:27:02.018Z,23.44
2024-05-09T19:30:17.592Z,23.26
2024-05-09T19:33:37.090Z,23.98
2024-05-09T19:36:45.773Z,23.52
2024-05-09T19:39:54.204Z,23.16
2024-05-09T19:42:59.855Z,23.05
2024-05-09T19:46:08.978Z,22.99
2024-05-09T19:49:19.976Z,22.56
2024-05-09T19:52:26.497Z,23.10
2024-05-09T19:55:34.588Z,23.49
2024-05-09T19:58:42.750Z,23.74
2024-05-09T20:01:48.878Z,23.61
2024-05-09T20:05:01.376Z,23.56
2024-05-09T20:08:08.038Z,23.96
2024-05-09T20:11:18.380Z,23.86
2024-05-09T20:14:27.123Z,23.76
2024-05-09T20:17:32.706Z,22.96
2024-05-09T20:20:45.194Z,22.69
2024-05-09T20:23:54.610Z,23.27
2024-05-09T20:27:00.151Z,22.57
2024-05-09T20:30:12.267Z,22.93
2024-05-09T20:33:19.962Z,23.62
2024-05-09T20:36:30.813Z,23.11
2024-05-09T20:39:39.257Z,23.52
2024-05-09T20:42:45.955Z,23.99
2024-05-09T20:45:54.051Z,24.31
2024-05-09T20:48:59.718Z,23.38
2024-05-09T20:52:11.140Z,23.72
2024-05-09T20:55:17.217Z,24.07
2024-05-09T20:58:25.329Z,23.71
2024-05-09T21:01:30.855Z,24.55
2024-05-09T21:04:39.320Z,24.03
2024-05-09T21:07:50.647Z,24.30
2024-05-09T21:11:01.943Z,24.18
2024-05-09T21:14:09.881Z,23.57
2024-05-09T21:17:15.631Z,24.03
2024-05-09T21:20:30.636Z,22.82
2024-05-09T21:23:40.382Z,23.48
2024-05-09T21:26:48.687Z,23.90
2024-05-09T21:29:54.444Z,23.38
2024-05-09T21:33:02.944Z,23.28
2024-05-09T21:36:10.067Z,23.58
2024-05-09T21:39:20.903Z,23.50
2024-05-09T21:42:29.130Z,22.47
2024-05-09T21:45:34.831Z,22.77
2024-05-09T21:48:43.093Z,22.95
2024-05-09T21:51:48.819Z,23.05
2024-05-09T21:54:59.688Z,23.01
2024-05-09T21:58:05.384Z,23.75
2024-05-09T22:01:13.766Z,22.89
2024-05-09T22:04:19.248Z,23.71
2024-05-09T22:07:27.455Z,23.61
2024-05-09T22:10:37.005Z,23.57
2024-05-09T22:13:45.361Z,23.30
2024-05-09T22:16:51.080Z,23.08
2024-05-09T22:19:59.524Z,23.05
2024-05-09T22:23:05.725Z,23.16
2024-05-09T22:26:16.558Z,23.49
2024-05-09T22:29:22.082Z,22.93
2024-05-09T22:32:30.320Z,22.94
2024-05-09T22:35:36.042Z,22.98
2024-05-09T22:38:44.306Z,22.67
2024-05-09T22:41:52.685Z,22.59
2024-05-09T22:45:01.321Z,23.02
2024-05-09T22:48:08.081Z,22.88
2024-05-09T22:51:16.322Z,22.75
2024-05-09T22:54:21.462Z,22.58
2024-05-09T22:57:32.327Z,21.60
2024-05-09T23:00:38.304Z,21.55
2024-05-09T23:03:47.064Z,22.01
2024-05-09T23:06:52.919Z,21.27
2024-05-09T23:10:01.255Z,21.48
2024-05-09T23:13:09.421Z,20.98
2024-05-09T23:16:17.906Z,20.77
2024-05-09T23:19:23.169Z,21.92
2024-05-09T23:22:31.157Z,21.19
2024-05-09T23:25:37.840Z,22.50
2024-05-09T23:28:48.993Z,22.15
2024-05-09T23:31:54.316Z,21.75
2024-05-09T23:35:02.456Z,21.93
2024-05-09T23:38:08.104Z,21.72
2024-05-09T23:41:16.225Z,20.75
2024-05-09T23:44:24.217Z,22.41
2024-05-09T23:47:32.579Z,21.52
2024-05-09T23:50:39.731Z,20.94
2024-05-09T23:53:49.075Z,21.65
2024-05-09T23:56:54.378Z,20.26
